createdAt,value
2022-11-16T00:01:33.502Z,97074.84
2022-11-16T00:04:01.803Z,97069.56
2022-11-16T00:06:28.929Z,97063.56
2022-11-16T00:09:17.870Z,97058.72
2022-11-16T00:11:45.217Z,97048.75
2022-11-16T00:14:12.428Z,97049.84
2022-11-16T00:16:39.851Z,97043.03
2022-11-16T00:19:07.782Z,97043.81
2022-11-16T00:21:35.204Z,97034.28
2022-11-16T00:24:02.882Z,97029.72
2022-11-16T00:26:30.146Z,97023.91
2022-11-16T00:28:57.738Z,97025.09
2022-11-16T00:31:25.046Z,97021.84
2022-11-16T00:33:52.311Z,97017.75
2022-11-16T00:36:19.485Z,97021.72
2022-11-16T00:38:46.650Z,97018.06
2022-11-16T00:41:14.080Z,97012.94
2022-11-16T00:43:41.223Z,97009.25
2022-11-16T00:46:09.056Z,97005.88
2022-11-16T00:48:36.529Z,97003.09
2022-11-16T00:51:04.076Z,96996.22
2022-11-16T00:53:31.246Z,96990.31
2022-11-16T00:55:58.341Z,97001.19
2022-11-16T00:58:25.405Z,96996.44
2022-11-16T01:00:52.797Z,96997.22
2022-11-16T01:03:20.729Z,96988.88
2022-11-16T01:05:48.937Z,96997.47
2022-11-16T01:08:16.646Z,96990.78
2022-11-16T01:10:44.315Z,96988.28
2022-11-16T01:13:11.654Z,96990.09
2022-11-16T01:15:38.887Z,96971.97
2022-11-16T01:18:06.447Z,96975.53
2022-11-16T01:20:33.759Z,96967.72
2022-11-16T01:23:00.829Z,96968.38
2022-11-16T01:25:27.935Z,96970.28
2022-11-16T01:27:54.968Z,96968.66
2022-11-16T01:30:22.294Z,96967.53
2022-11-16T01:32:49.346Z,96961.38
2022-11-16T01:35:18.732Z,96964.59
2022-11-16T01:37:45.932Z,96952.91
2022-11-16T01:40:14.271Z,96952.16
2022-11-16T01:42:41.785Z,96956.88
2022-11-16T01:45:32.122Z,96950.19
2022-11-16T01:47:59.346Z,96950.69
2022-11-16T01:50:26.481Z,96939.22
2022-11-16T01:53:02.041Z,96935.56
2022-11-16T01:55:31.113Z,96931.91
2022-11-16T01:57:58.485Z,96933.38
2022-11-16T02:00:25.976Z,96934.50
2022-11-16T02:02:53.733Z,96931.59
2022-11-16T02:05:25.042Z,96933.25
2022-11-16T02:08:53.677Z,96930.53
2022-11-16T02:12:05.533Z,96934.31
2022-11-16T02:15:10.188Z,96933.78
2022-11-16T02:17:43.516Z,96936.50
2022-11-16T02:20:13.450Z,96938.81
2022-11-16T02:23:14.674Z,96931.47
2022-11-16T02:25:53.835Z,96935.75
2022-11-16T02:28:44.159Z,96926.41
2022-11-16T02:31:15.030Z,96927.03
2022-11-16T02:33:42.882Z,96927.34
2022-11-16T02:36:13.284Z,96917.59
2022-11-16T02:38:44.570Z,96918.41
2022-11-16T02:41:16.412Z,96900.13
2022-11-16T02:43:45.868Z,96888.84
2022-11-16T02:46:17.657Z,96879.44
2022-11-16T02:48:48.545Z,96873.28
2022-11-16T02:51:16.081Z,96870.56
2022-11-16T02:53:58.364Z,96873.16
2022-11-16T02:56:25.625Z,96858.84
2022-11-16T02:58:53.255Z,96866.56
2022-11-16T03:01:26.835Z,96876.16
2022-11-16T03:04:11.823Z,96873.13
2022-11-16T03:06:39.759Z,96880.31
2022-11-16T03:09:21.337Z,96870.47
2022-11-16T03:12:02.997Z,96875.28
2022-11-16T03:14:53.526Z,96874.03
2022-11-16T03:17:25.535Z,96876.00
2022-11-16T03:20:10.403Z,96882.91
2022-11-16T03:22:41.528Z,96879.59
2022-11-16T03:25:10.476Z,96878.53
2022-11-16T03:27:40.224Z,96869.34
2022-11-16T03:30:13.037Z,96869.06
2022-11-16T03:32:54.358Z,96865.50
2022-11-16T03:35:35.475Z,96865.75
2022-11-16T03:38:04.183Z,96876.72
2022-11-16T03:40:33.818Z,96873.88
2022-11-16T03:43:02.217Z,96875.88
2022-11-16T03:45:30.696Z,96865.94
2022-11-16T03:47:57.768Z,96868.00
2022-11-16T03:50:24.803Z,96865.63
2022-11-16T03:52:52.078Z,96868.97
2022-11-16T03:55:19.224Z,96871.47
2022-11-16T03:57:46.281Z,96869.25
2022-11-16T04:00:13.490Z,96875.94
2022-11-16T04:02:40.691Z,96872.78
2022-11-16T04:05:26.951Z,96879.94
2022-11-16T04:08:12.434Z,96884.03
2022-11-16T04:10:58.149Z,96878.06
2022-11-16T04:13:48.020Z,96875.34
2022-11-16T04:16:33.701Z,96878.28
2022-11-16T04:19:19.486Z,96882.97
2022-11-16T04:22:10.290Z,96878.22
2022-11-16T04:24:40.378Z,96881.84
2022-11-16T04:27:28.241Z,96885.19
2022-11-16T04:29:57.648Z,96880.84
2022-11-16T04:32:43.315Z,96884.63
2022-11-16T04:35:29.112Z,96877.72
2022-11-16T04:37:57.700Z,96880.66
2022-11-16T04:40:29.645Z,96878.97
2022-11-16T04:42:58.475Z,96879.13
2022-11-16T04:45:45.901Z,96879.66
2022-11-16T04:48:14.258Z,96869.97
2022-11-16T04:50:41.366Z,96867.25
2022-11-16T04:53:09.264Z,96870.06
2022-11-16T04:55:36.306Z,96873.78
2022-11-16T04:58:03.944Z,96864.78
2022-11-16T05:00:31.189Z,96871.78
2022-11-16T05:03:01.591Z,96872.13
2022-11-16T05:05:29.345Z,96855.75
2022-11-16T05:07:56.479Z,96864.09
2022-11-16T05:10:23.547Z,96855.53
2022-11-16T05:12:50.621Z,96865.88
2022-11-16T05:15:19.712Z,96859.34
2022-11-16T05:17:47.424Z,96857.25
2022-11-16T05:20:34.208Z,96865.91
2022-11-16T05:23:01.267Z,96859.16
2022-11-16T05:25:32.521Z,96858.13
2022-11-16T05:28:03.043Z,96863.13
2022-11-16T05:30:30.210Z,96869.47
2022-11-16T05:32:57.318Z,96862.81
2022-11-16T05:35:24.409Z,96872.66
2022-11-16T05:37:51.540Z,96871.47
2022-11-16T05:40:18.612Z,96869.59
2022-11-16T05:42:45.650Z,96869.06
2022-11-16T05:45:17.131Z,96870.72
2022-11-16T05:47:46.886Z,96866.75
2022-11-16T05:50:13.924Z,96866.13
2022-11-16T05:52:40.965Z,96865.69
2022-11-16T05:55:08.638Z,96866.28
2022-11-16T05:57:35.719Z,96856.47
2022-11-16T06:00:04.178Z,96857.19
2022-11-16T06:02:32.911Z,96857.84
2022-11-16T06:05:00.077Z,96861.09
2022-11-16T06:07:27.214Z,96858.50
2022-11-16T06:09:54.483Z,96861.13
2022-11-16T06:12:21.506Z,96863.75
2022-11-16T06:14:48.550Z,96870.59
2022-11-16T06:17:15.590Z,96877.38
2022-11-16T06:19:42.670Z,96885.44
2022-11-16T06:22:09.800Z,96887.00
2022-11-16T06:24:36.844Z,96881.25
2022-11-16T06:27:04.020Z,96886.69
2022-11-16T06:29:31.105Z,96884.63
2022-11-16T06:31:58.290Z,96885.34
2022-11-16T06:34:25.407Z,96888.88
2022-11-16T06:36:52.585Z,96888.34
2022-11-16T06:39:19.687Z,96893.63
2022-11-16T06:41:46.739Z,96894.00
2022-11-16T06:44:13.800Z,96898.91
2022-11-16T06:46:40.927Z,96899.44
2022-11-16T06:49:08.018Z,96899.59
2022-11-16T06:51:35.146Z,96899.28
2022-11-16T06:54:02.216Z,96896.03
2022-11-16T06:56:29.278Z,96899.28
2022-11-16T06:58:57.183Z,96900.53
2022-11-16T07:01:24.284Z,96893.31
2022-11-16T07:03:51.365Z,96899.94
2022-11-16T07:06:18.445Z,96893.97
2022-11-16T07:08:45.574Z,96894.50
2022-11-16T07:11:12.771Z,96897.94
2022-11-16T07:13:40.333Z,96899.72
2022-11-16T07:16:09.308Z,96897.41
2022-11-16T07:18:38.100Z,96905.78
2022-11-16T07:21:16.429Z,96894.09
2022-11-16T07:23:44.550Z,96900.06
2022-11-16T07:26:11.824Z,96905.19
2022-11-16T07:28:43.392Z,96908.09
2022-11-16T07:31:14.827Z,96908.09
2022-11-16T07:33:42.241Z,96910.00
2022-11-16T07:36:14.156Z,96906.91
2022-11-16T07:38:41.720Z,96913.19
2022-11-16T07:41:16.719Z,96915.00
2022-11-16T07:43:48.518Z,96903.50
2022-11-16T07:46:45.907Z,96914.06
2022-11-16T07:49:12.978Z,96915.53
2022-11-16T07:51:40.102Z,96908.59
2022-11-16T07:54:07.174Z,96903.22
2022-11-16T07:56:34.215Z,96912.66
2022-11-16T07:59:01.527Z,96909.09
2022-11-16T08:01:28.651Z,96917.91
2022-11-16T08:03:55.810Z,96908.47
2022-11-16T08:06:27.888Z,96910.78
2022-11-16T08:08:58.364Z,96914.88
2022-11-16T08:11:26.268Z,96903.56
2022-11-16T08:13:53.537Z,96900.00
2022-11-16T08:16:22.303Z,96895.53
2022-11-16T08:18:49.754Z,96887.47
2022-11-16T08:21:18.055Z,96893.44
2022-11-16T08:23:45.458Z,96885.28
2022-11-16T08:26:18.282Z,96884.41
2022-11-16T08:28:46.946Z,96895.63
2022-11-16T08:31:17.452Z,96888.72
2022-11-16T08:33:44.690Z,96887.44
2022-11-16T08:36:16.994Z,96882.22
2022-11-16T08:38:48.438Z,96875.94
2022-11-16T08:41:16.642Z,96877.72
2022-11-16T08:43:44.634Z,96879.38
2022-11-16T08:46:11.882Z,96877.94
2022-11-16T08:48:39.503Z,96875.31
2022-11-16T08:51:17.906Z,96882.31
2022-11-16T08:53:48.146Z,96867.16
2022-11-16T08:56:17.483Z,96870.59
2022-11-16T08:58:46.960Z,96866.41
2022-11-16T09:01:17.211Z,96864.72
2022-11-16T09:03:44.642Z,96861.09
2022-11-16T09:06:12.505Z,96873.75
2022-11-16T09:08:42.162Z,96867.78
2022-11-16T09:11:11.348Z,96856.28
2022-11-16T09:13:38.996Z,96862.13
2022-11-16T09:16:06.928Z,96861.81
2022-11-16T09:18:37.798Z,96861.28
2022-11-16T09:21:05.452Z,96863.91
2022-11-16T09:23:32.913Z,96859.91
2022-11-16T09:26:05.153Z,96862.22
2022-11-16T09:28:32.853Z,96862.63
2022-11-16T09:31:02.294Z,96863.25
2022-11-16T09:33:30.956Z,96857.81
2022-11-16T09:36:09.095Z,96855.50
2022-11-16T09:39:13.983Z,96856.03
2022-11-16T09:41:34.036Z,96851.53
2022-11-16T09:44:39.449Z,96858.44
2022-11-16T09:47:14.159Z,96846.69
2022-11-16T09:49:46.391Z,96845.03
2022-11-16T09:52:37.216Z,96846.09
2022-11-16T09:55:31.187Z,96841.50
2022-11-16T09:58:03.021Z,96848.19
2022-11-16T10:00:30.663Z,96844.59
2022-11-16T10:03:04.816Z,96844.09
2022-11-16T10:05:43.833Z,96847.31
2022-11-16T10:08:27.465Z,96839.16
2022-11-16T10:11:35.544Z,96844.28
2022-11-16T10:14:20.868Z,96846.19
2022-11-16T10:17:01.192Z,96843.75
2022-11-16T10:19:54.254Z,96838.50
2022-11-16T10:22:24.408Z,96832.19
2022-11-16T10:24:58.044Z,96836.56
2022-11-16T10:27:46.560Z,96829.88
2022-11-16T10:30:18.394Z,96827.34
2022-11-16T10:32:55.348Z,96836.78
2022-11-16T10:35:39.847Z,96831.59
2022-11-16T10:38:14.459Z,96833.66
2022-11-16T10:40:42.346Z,96827.16
2022-11-16T10:43:18.662Z,96837.72
2022-11-16T10:46:08.158Z,96827.75
2022-11-16T10:48:42.903Z,96833.81
2022-11-16T10:51:10.474Z,96847.28
2022-11-16T10:53:40.280Z,96840.47
2022-11-16T10:56:17.789Z,96836.53
2022-11-16T10:59:02.318Z,96831.53
2022-11-16T11:01:43.543Z,96832.31
2022-11-16T11:04:33.492Z,96826.91
2022-11-16T11:07:22.022Z,96822.03
2022-11-16T11:09:53.447Z,96824.63
2022-11-16T11:12:38.294Z,96829.00
2022-11-16T11:15:06.330Z,96824.09
2022-11-16T11:17:35.660Z,96833.00
2022-11-16T11:20:24.257Z,96823.91
2022-11-16T11:22:57.825Z,96829.78
2022-11-16T11:25:26.302Z,96828.69
2022-11-16T11:28:19.048Z,96832.38
2022-11-16T11:30:54.127Z,96831.81
2022-11-16T11:33:24.223Z,96836.72
2022-11-16T11:36:34.787Z,96834.19
2022-11-16T11:39:03.985Z,96835.88
2022-11-16T11:41:39.601Z,96839.09
2022-11-16T11:44:17.767Z,96842.78
2022-11-16T11:47:42.234Z,96834.78
2022-11-16T11:49:40.543Z,96830.78
2022-11-16T11:52:17.326Z,96834.06
2022-11-16T11:54:47.769Z,96836.22
2022-11-16T11:57:20.589Z,96836.22
2022-11-16T11:59:52.368Z,96836.28
2022-11-16T12:02:28.442Z,96835.41
2022-11-16T12:05:05.669Z,96834.34
2022-11-16T12:07:56.947Z,96837.25
2022-11-16T12:10:30.343Z,96829.06
2022-11-16T12:13:11.913Z,96834.53
2022-11-16T12:15:45.524Z,96829.41
2022-11-16T12:18:23.124Z,96820.50
2022-11-16T12:21:01.241Z,96810.13
2022-11-16T12:23:49.567Z,96812.84
2022-11-16T12:26:19.691Z,96815.38
2022-11-16T12:29:01.892Z,96813.88
2022-11-16T12:31:40.859Z,96814.88
2022-11-16T12:34:19.716Z,96809.50
2022-11-16T12:36:58.805Z,96802.06
2022-11-16T12:39:49.631Z,96810.59
2022-11-16T12:42:28.707Z,96805.88
2022-11-16T12:45:16.248Z,96806.97
2022-11-16T12:47:59.494Z,96804.78
2022-11-16T12:50:35.650Z,96810.66
2022-11-16T12:53:11.528Z,96805.56
2022-11-16T12:56:03.755Z,96804.06
2022-11-16T12:58:38.832Z,96807.34
2022-11-16T13:01:23.720Z,96809.50
2022-11-16T13:03:54.455Z,96812.59
2022-11-16T13:06:27.932Z,96812.06
2022-11-16T13:09:05.904Z,96809.00
2022-11-16T13:11:38.575Z,96808.66
2022-11-16T13:14:18.276Z,96809.56
2022-11-16T13:16:46.623Z,96808.50
2022-11-16T13:19:15.839Z,96807.22
2022-11-16T13:21:47.947Z,96800.50
2022-11-16T13:24:24.379Z,96797.25
2022-11-16T13:27:01.177Z,96803.44
2022-11-16T13:29:32.679Z,96797.44
2022-11-16T13:32:11.490Z,96792.69
2022-11-16T13:34:39.433Z,96791.47
2022-11-16T13:37:34.487Z,96788.19
2022-11-16T13:40:01.606Z,96781.47
2022-11-16T13:42:30.138Z,96781.47
2022-11-16T13:45:17.634Z,96790.38
2022-11-16T13:47:53.191Z,96782.19
2022-11-16T13:50:23.013Z,96776.00
2022-11-16T13:55:41.869Z,96778.16
2022-11-16T13:58:11.450Z,96774.88
2022-11-16T14:00:39.728Z,96770.88
2022-11-16T14:03:15.970Z,96769.81
2022-11-16T14:05:43.164Z,96764.38
2022-11-16T14:08:19.089Z,96762.91
2022-11-16T14:10:49.934Z,96768.69
2022-11-16T14:13:46.967Z,96761.41
2022-11-16T14:16:17.289Z,96773.38
2022-11-16T14:18:46.035Z,96766.47
2022-11-16T14:21:34.869Z,96773.03
2022-11-16T14:24:22.225Z,96772.63
2022-11-16T14:27:07.616Z,96762.63
2022-11-16T14:29:40.467Z,96767.66
2022-11-16T14:32:22.540Z,96765.84
2022-11-16T14:34:52.240Z,96769.84
2022-11-16T14:37:22.057Z,96760.75
2022-11-16T14:39:50.620Z,96750.94
2022-11-16T14:42:24.191Z,96754.88
2022-11-16T14:44:59.884Z,96761.78
2022-11-16T14:47:29.142Z,96756.13
2022-11-16T14:49:56.766Z,96744.16
2022-11-16T14:52:37.892Z,96748.91
2022-11-16T14:55:10.052Z,96747.09
2022-11-16T14:57:37.102Z,96739.44
2022-11-16T15:00:20.543Z,96745.97
2022-11-16T15:02:51.849Z,96738.72
2022-11-16T15:05:21.837Z,96740.00
2022-11-16T15:07:51.692Z,96734.72
2022-11-16T15:10:24.224Z,96734.31
2022-11-16T15:12:52.874Z,96729.09
2022-11-16T15:15:23.576Z,96736.19
2022-11-16T15:17:59.662Z,96725.47
2022-11-16T15:20:29.139Z,96728.19
2022-11-16T15:23:00.638Z,96732.72
2022-11-16T15:25:35.362Z,96732.53
2022-11-16T15:28:16.130Z,96732.53
2022-11-16T15:30:46.272Z,96729.28
2022-11-16T15:33:24.386Z,96727.41
2022-11-16T15:35:51.670Z,96718.16
2022-11-16T15:38:22.014Z,96715.97
2022-11-16T15:40:57.503Z,96723.78
2022-11-16T15:43:27.851Z,96720.50
2022-11-16T15:45:55.046Z,96725.25
2022-11-16T15:48:24.509Z,96725.97
2022-11-16T15:51:08.648Z,96723.44
2022-11-16T15:53:38.702Z,96717.25
2022-11-16T15:56:26.110Z,96720.91
2022-11-16T15:58:54.961Z,96718.72
2022-11-16T16:01:22.414Z,96718.72
2022-11-16T16:04:06.696Z,96724.91
2022-11-16T16:06:54.165Z,96714.00
2022-11-16T16:09:36.805Z,96718.38
2022-11-16T16:12:17.029Z,96721.59
2022-11-16T16:14:44.714Z,96712.88
2022-11-16T16:17:30.135Z,96716.16
2022-11-16T16:20:02.573Z,96719.06
2022-11-16T16:22:34.498Z,96718.72
2022-11-16T16:25:02.126Z,96720.91
2022-11-16T16:27:31.176Z,96721.09
2022-11-16T16:30:02.388Z,96719.09
2022-11-16T16:32:31.515Z,96718.38
2022-11-16T16:35:01.694Z,96715.84
2022-11-16T16:37:30.922Z,96718.75
2022-11-16T16:39:58.786Z,96722.94
2022-11-16T16:42:26.175Z,96713.50
2022-11-16T16:44:53.667Z,96710.25
2022-11-16T16:47:23.320Z,96704.25
2022-11-16T16:49:50.541Z,96714.06
2022-11-16T16:52:17.808Z,96718.28
2022-11-16T16:54:44.911Z,96719.72
2022-11-16T16:57:16.334Z,96713.53
2022-11-16T16:59:45.651Z,96726.44
2022-11-16T17:02:13.096Z,96727.69
2022-11-16T17:04:40.630Z,96720.28
2022-11-16T17:07:07.798Z,96718.78
2022-11-16T17:09:34.894Z,96714.81
2022-11-16T17:12:02.077Z,96726.44
2022-11-16T17:14:29.326Z,96721.72
2022-11-16T17:16:56.429Z,96719.50
2022-11-16T17:19:23.710Z,96708.59
2022-11-16T17:21:51.912Z,96710.81
2022-11-16T17:24:19.348Z,96709.38
2022-11-16T17:26:49.135Z,96714.06
2022-11-16T17:29:16.216Z,96713.34
2022-11-16T17:31:44.768Z,96711.34
2022-11-16T17:34:14.678Z,96705.38
2022-11-16T17:36:42.803Z,96711.53
2022-11-16T17:39:09.828Z,96708.59
2022-11-16T17:41:37.088Z,96712.09
2022-11-16T17:44:04.622Z,96706.09
2022-11-16T17:46:31.815Z,96710.81
2022-11-16T17:48:58.900Z,96713.00
2022-11-16T17:51:26.453Z,96711.53
2022-11-16T17:53:54.041Z,96712.47
2022-11-16T17:56:26.853Z,96715.19
2022-11-16T17:58:55.136Z,96711.91
2022-11-16T18:01:22.872Z,96711.19
2022-11-16T18:03:50.077Z,96713.38
2022-11-16T18:06:19.240Z,96724.81
2022-11-16T18:08:47.181Z,96721.38
2022-11-16T18:11:16.969Z,96726.28
2022-11-16T18:13:44.672Z,96719.38
2022-11-16T18:16:14.266Z,96710.47
2022-11-16T18:18:41.923Z,96716.63
2022-11-16T18:21:09.811Z,96719.91
2022-11-16T18:23:38.183Z,96717.53
2022-11-16T18:26:18.803Z,96714.28
2022-11-16T18:28:46.326Z,96707.38
2022-11-16T18:31:15.607Z,96712.59
2022-11-16T18:33:43.003Z,96711.16
2022-11-16T18:36:10.732Z,96702.25
2022-11-16T18:38:38.028Z,96700.97
2022-11-16T18:41:16.460Z,96705.69
2022-11-16T18:43:51.015Z,96709.88
2022-11-16T18:46:22.559Z,96705.69
2022-11-16T18:48:49.734Z,96700.25
2022-11-16T18:51:17.489Z,96702.25
2022-11-16T18:53:44.688Z,96705.50
2022-11-16T18:56:11.931Z,96701.66
2022-11-16T18:58:54.864Z,96702.75
2022-11-16T19:01:24.447Z,96697.66
2022-11-16T19:03:52.941Z,96694.94
2022-11-16T19:06:20.815Z,96696.38
2022-11-16T19:08:54.050Z,96690.22
2022-11-16T19:11:23.246Z,96688.00
2022-11-16T19:13:55.670Z,96689.66
2022-11-16T19:16:23.610Z,96684.22
2022-11-16T19:18:50.796Z,96686.53
2022-11-16T19:21:18.578Z,96683.63
2022-11-16T19:23:47.561Z,96686.34
2022-11-16T19:26:16.083Z,96682.19
2022-11-16T19:28:45.148Z,96687.81
2022-11-16T19:31:19.718Z,96689.09
2022-11-16T19:33:47.145Z,96686.91
2022-11-16T19:36:15.248Z,96679.47
2022-11-16T19:38:43.319Z,96679.06
2022-11-16T19:41:11.784Z,96683.59
2022-11-16T19:43:39.317Z,96679.97
2022-11-16T19:46:10.403Z,96683.41
2022-11-16T19:48:37.807Z,96685.59
2022-11-16T19:51:09.821Z,96678.50
2022-11-16T19:53:37.448Z,96687.03
2022-11-16T19:56:05.930Z,96677.59
2022-11-16T19:58:39.622Z,96681.25
2022-11-16T20:01:08.055Z,96679.47
2022-11-16T20:03:38.077Z,96691.44
2022-11-16T20:06:15.492Z,96686.72
2022-11-16T20:08:48.065Z,96684.72
2022-11-16T20:11:22.971Z,96688.50
2022-11-16T20:13:51.719Z,96684.13
2022-11-16T20:16:20.728Z,96672.50
2022-11-16T20:18:48.343Z,96674.69
2022-11-16T20:21:22.455Z,96676.16
2022-11-16T20:23:51.657Z,96681.59
2022-11-16T20:26:19.928Z,96681.78
2022-11-16T20:28:47.722Z,96680.31
2022-11-16T20:31:16.699Z,96677.09
2022-11-16T20:34:13.727Z,96677.59
2022-11-16T20:36:43.324Z,96673.59
2022-11-16T20:39:15.152Z,96678.31
2022-11-16T20:41:43.838Z,96673.09
2022-11-16T20:44:16.599Z,96673.28
2022-11-16T20:46:45.087Z,96676.91
2022-11-16T20:49:12.560Z,96678.38
2022-11-16T20:51:39.848Z,96677.63
2022-11-16T20:54:07.138Z,96670.19
2022-11-16T20:56:34.355Z,96672.00
2022-11-16T20:59:01.635Z,96681.63
2022-11-16T21:01:30.924Z,96676.53
2022-11-16T21:03:59.627Z,96680.00
2022-11-16T21:06:27.208Z,96679.06
2022-11-16T21:08:54.574Z,96685.78
2022-11-16T21:11:28.056Z,96684.69
2022-11-16T21:14:14.398Z,96698.63
2022-11-16T21:16:41.521Z,96688.41
2022-11-16T21:19:08.575Z,96688.03
2022-11-16T21:21:35.950Z,96682.41
2022-11-16T21:24:03.065Z,96692.34
2022-11-16T21:26:31.907Z,96688.72
2022-11-16T21:29:00.296Z,96695.03
2022-11-16T21:31:32.768Z,96692.13
2022-11-16T21:34:02.922Z,96693.00
2022-11-16T21:36:31.490Z,96692.59
2022-11-16T21:38:59.951Z,96688.22
2022-11-16T21:41:27.704Z,96679.47
2022-11-16T21:43:55.182Z,96691.09
2022-11-16T21:46:27.446Z,96689.09
2022-11-16T21:48:56.211Z,96703.97
2022-11-16T21:51:25.383Z,96700.34
2022-11-16T21:53:52.568Z,96700.13
2022-11-16T21:56:21.396Z,96702.84
2022-11-16T21:58:49.985Z,96701.38
2022-11-16T22:01:17.184Z,96702.47
2022-11-16T22:03:44.808Z,96695.94
2022-11-16T22:06:32.716Z,96698.47
2022-11-16T22:09:00.118Z,96690.66
2022-11-16T22:11:27.242Z,96697.56
2022-11-16T22:13:54.520Z,96691.22
2022-11-16T22:16:23.576Z,96696.16
2022-11-16T22:18:51.029Z,96694.34
2022-11-16T22:21:18.283Z,96694.72
2022-11-16T22:23:45.507Z,96691.69
2022-11-16T22:26:13.845Z,96698.06
2022-11-16T22:28:41.402Z,96698.97
2022-11-16T22:31:11.299Z,96690.06
2022-11-16T22:33:38.875Z,96692.06
2022-11-16T22:36:09.180Z,96694.78
2022-11-16T22:38:36.608Z,96694.25
2022-11-16T22:41:04.106Z,96690.47
2022-11-16T22:43:32.352Z,96691.94
2022-11-16T22:46:01.076Z,96689.75
2022-11-16T22:48:32.493Z,96691.19
2022-11-16T22:51:06.690Z,96691.00
2022-11-16T22:53:34.719Z,96694.47
2022-11-16T22:56:08.988Z,96695.72
2022-11-16T22:58:37.385Z,96702.03
2022-11-16T23:01:06.077Z,96703.84
2022-11-16T23:03:34.385Z,96699.44
2022-11-16T23:06:01.824Z,96699.25
2022-11-16T23:08:29.000Z,96697.06
2022-11-16T23:11:21.839Z,96697.06
2022-11-16T23:14:07.874Z,96686.84
2022-11-16T23:16:34.925Z,96686.44
2022-11-16T23:19:02.071Z,96678.81
2022-11-16T23:21:48.022Z,96671.38
2022-11-16T23:24:34.100Z,96660.44
2022-11-16T23:27:21.295Z,96657.72
2022-11-16T23:29:48.403Z,96660.44
2022-11-16T23:32:15.478Z,96665.38
2022-11-16T23:34:42.552Z,96654.78
2022-11-16T23:37:09.631Z,96652.81
2022-11-16T23:39:36.718Z,96645.91
2022-11-16T23:42:22.279Z,96648.63
2022-11-16T23:44:49.340Z,96644.84
2022-11-16T23:47:16.429Z,96634.69
2022-11-16T23:49:43.484Z,96633.22
2022-11-16T23:52:10.980Z,96629.75
2022-11-16T23:54:38.352Z,96636.09
2022-11-16T23:57:05.775Z,96639.69
2022-11-16T23:59:33.234Z,96634.78
